Time;durP1;ratioP1;P1;durP2;ratioP2;P2;SDS_P1;SDS_P2;PMS_P1;PMS_P2;Temp;Humidity;BMP_temperature;BMP_pressure;BME280_temperature;BME280_humidity;BME280_pressure;Samples;Min_cycle;Max_cycle;Signal;HPM_P1;HPM_P2
2022/06/17 00:00:10;;;;;;;;;;;;;;;;;;5065808;28;19959;-80
2022/06/17 00:02:36;;;;;;;;;;;;;;;;;;5062590;28;19932;-82
2022/06/17 00:05:02;;;;;;;;;;;;;;;;;;5097251;28;19934;-81
2022/06/17 00:07:28;;;;;;;;;;;;;;;;;;5083882;28;20010;-80
2022/06/17 00:09:53;;;;;;;;;;;;;;;;;;5079435;28;19935;-79
2022/06/17 00:12:19;;;;;;;;;;;;;;;;;;5070244;28;19931;-79
2022/06/17 00:17:30;;;;;;;;;;;;;;;;;;5080782;28;19935;-80
2022/06/17 00:19:56;;;;;;;;;;;;;;;;;;5084408;28;19924;-79
2022/06/17 00:22:22;;;;;;;;;;;;;;;;;;5080071;28;19931;-79
2022/06/17 00:24:48;;;;;;;;;;;;;;;;;;5075393;28;19920;-79
2022/06/17 00:27:14;;;;;;;;;;;;;;;;;;5078860;28;19932;-80
2022/06/17 00:29:40;;;;;;;;;;;;;;;;;;5099068;28;19963;-77
2022/06/17 00:32:06;;;;;;;;;;;;;;;;;;5072574;28;20250;-79
2022/06/17 00:34:32;;;;;;;;;;;;;;;;;;5081434;28;19965;-79
2022/06/17 00:36:58;;;;;;;;;;;;;;;;;;5076295;28;19927;-79
2022/06/17 00:39:24;;;;;;;;;;;;;;;;;;5074514;28;19924;-79
2022/06/17 00:41:50;;;;;;;;;;;;;;;;;;5097048;28;20002;-79
2022/06/17 00:44:16;;;;;;;;;;;;;;;;;;5069345;28;19963;-79
2022/06/17 00:46:42;;;;;;;;;;;;;;;;;;5102108;28;19924;-78
2022/06/17 00:49:07;;;;;;;;;;;;;;;;;;5080683;28;20380;-79
2022/06/17 00:51:33;;;;;;;;;;;;;;;;;;5080402;28;19954;-80
2022/06/17 00:53:59;;;;;;;;;;;;;;;;;;5081642;28;20483;-80
2022/06/17 00:56:25;;;;;;;;;;;;;;;;;;5082620;28;19931;-81
2022/06/17 00:58:51;;;;;;;;;;;;;;;;;;5073049;28;19920;-79
2022/06/17 01:01:17;;;;;;;;;;;;;;;;;;5064005;28;19943;-79
2022/06/17 01:03:44;;;;;;;;;;;;;;;;;;5076342;28;19997;-79
2022/06/17 01:06:10;;;;;;;;;;;;;;;;;;5079438;28;20231;-80
2022/06/17 01:11:21;;;;;;;;;;;;;;;;;;5083512;28;19931;-79
2022/06/17 01:13:47;;;;;;;;;;;;;;;;;;5078967;28;20272;-79
2022/06/17 01:16:12;;;;;;;;;;;;;;;;;;5081426;28;19920;-79
2022/06/17 01:18:39;;;;;;;;;;;;;;;;;;5063606;28;19920;-79
2022/06/17 01:21:04;;;;;;;;;;;;;;;;;;5059354;28;19967;-79
2022/06/17 01:23:31;;;;;;;;;;;;;;;;;;5067710;28;19967;-79
2022/06/17 01:25:56;;;;;;;;;;;;;;;;;;5061378;28;19937;-79
2022/06/17 01:28:22;;;;;;;;;;;;;;;;;;5078103;28;19936;-79
2022/06/17 01:30:48;;;;;;;;;;;;;;;;;;5081974;28;19929;-78
2022/06/17 01:33:14;;;;;;;;;;;;;;;;;;5082446;28;19948;-79
2022/06/17 01:35:40;;;;;;;;;;;;;;;;;;5095466;28;19951;-81
2022/06/17 01:38:06;;;;;;;;;;;;;;;;;;5058489;28;19931;-80
2022/06/17 01:40:32;;;;;;;;;;;;;;;;;;5062865;28;19974;-79
2022/06/17 01:42:58;;;;;;;;;;;;;;;;;;5080244;28;19926;-79
2022/06/17 01:45:24;;;;;;;;;;;;;;;;;;5077810;28;19974;-79
2022/06/17 01:47:50;;;;;;;;;;;;;;;;;;5056757;28;19921;-79
2022/06/17 01:50:16;;;;;;;;;;;;;;;;;;5078065;28;19939;-80
2022/06/17 01:52:42;;;;;;;;;;;;;;;;;;5080135;28;19919;-79
2022/06/17 01:55:08;;;;;;;;;;;;;;;;;;5061230;28;19932;-81
2022/06/17 01:57:35;;;;;;;;;;;;;;;;;;5085804;28;19959;-80
2022/06/17 02:00:01;;;;;;;;;;;;;;;;;;5062036;28;19920;-79
2022/06/17 02:02:27;;;;;;;;;;;;;;;;;;5083331;28;20381;-80
2022/06/17 02:04:53;;;;;;;;;;;;;;;;;;5076597;28;19962;-79
2022/06/17 02:07:19;;;;;;;;;;;;;;;;;;5083030;28;19955;-80
2022/06/17 02:09:45;;;;;;;;;;;;;;;;;;5093619;28;20322;-79
2022/06/17 02:12:11;;;;;;;;;;;;;;;;;;5058290;28;20368;-80
2022/06/17 02:14:37;;;;;;;;;;;;;;;;;;5059922;28;19924;-79
2022/06/17 02:17:03;;;;;;;;;;;;;;;;;;5076285;28;20381;-79
2022/06/17 02:19:29;;;;;;;;;;;;;;;;;;5061392;28;19920;-79
2022/06/17 02:21:55;;;;;;;;;;;;;;;;;;5080993;28;19955;-80
2022/06/17 02:24:21;;;;;;;;;;;;;;;;;;5058506;28;19970;-79
2022/06/17 02:26:47;;;;;;;;;;;;;;;;;;5066998;28;20270;-79
2022/06/17 02:29:13;;;;;;;;;;;;;;;;;;5076675;28;20311;-80
2022/06/17 02:31:39;;;;;;;;;;;;;;;;;;5075616;28;19955;-79
2022/06/17 02:34:04;;;;;;;;;;;;;;;;;;5078460;28;19971;-79
2022/06/17 02:36:30;;;;;;;;;;;;;;;;;;5099399;28;19942;-79
2022/06/17 02:38:58;;;;;;;;;;;;;;;;;;5061601;28;19932;-79
2022/06/17 02:41:24;;;;;;;;;;;;;;;;;;5074969;28;19920;-79
2022/06/17 02:43:50;;;;;;;;;;;;;;;;;;5075457;28;19932;-78
2022/06/17 02:46:16;;;;;;;;;;;;;;;;;;5079594;28;19923;-79
2022/06/17 02:48:42;;;;;;;;;;;;;;;;;;5081555;28;19920;-78
2022/06/17 02:51:08;;;;;;;;;;;;;;;;;;5097719;28;19978;-80
2022/06/17 02:53:34;;;;;;;;;;;;;;;;;;5076884;28;19927;-79
2022/06/17 02:56:00;;;;;;;;;;;;;;;;;;5072964;28;20629;-80
2022/06/17 02:58:26;;;;;;;;;;;;;;;;;;5086848;28;20578;-80
2022/06/17 03:00:52;;;;;;;;;;;;;;;;;;5095372;28;19935;-79
2022/06/17 03:03:18;;;;;;;;;;;;;;;;;;5065180;28;19928;-78
2022/06/17 03:05:43;;;;;;;;;;;;;;;;;;5084263;28;19930;-79
2022/06/17 03:08:09;;;;;;;;;;;;;;;;;;5071994;28;19924;-80
2022/06/17 03:10:35;;;;;;;;;;;;;;;;;;5097295;28;19934;-79
2022/06/17 03:13:01;;;;;;;;;;;;;;;;;;5080099;28;19935;-79
2022/06/17 03:15:27;;;;;;;;;;;;;;;;;;5081884;28;19919;-79
2022/06/17 03:17:53;;;;;;;;;;;;;;;;;;5079264;28;20363;-79
2022/06/17 03:20:19;;;;;;;;;;;;;;;;;;5086117;28;20266;-78
2022/06/17 03:22:45;;;;;;;;;;;;;;;;;;5079757;28;19920;-78
2022/06/17 03:25:11;;;;;;;;;;;;;;;;;;5096095;28;20010;-78
2022/06/17 03:27:37;;;;;;;;;;;;;;;;;;5062907;28;20369;-78
2022/06/17 03:30:03;;;;;;;;;;;;;;;;;;5088559;28;19920;-79
2022/06/17 03:32:29;;;;;;;;;;;;;;;;;;5082533;28;20262;-80
2022/06/17 03:34:55;;;;;;;;;;;;;;;;;;5095171;28;20266;-78
2022/06/17 03:37:21;;;;;;;;;;;;;;;;;;5086069;28;20312;-78
2022/06/17 03:39:47;;;;;;;;;;;;;;;;;;5067699;28;20014;-78
2022/06/17 03:42:13;;;;;;;;;;;;;;;;;;5080739;28;20299;-78
2022/06/17 03:44:39;;;;;;;;;;;;;;;;;;5086470;28;20248;-79
2022/06/17 03:47:05;;;;;;;;;;;;;;;;;;5059175;28;19924;-78
2022/06/17 03:49:31;;;;;;;;;;;;;;;;;;5082584;28;19920;-79
2022/06/17 03:51:56;;;;;;;;;;;;;;;;;;5088000;28;19927;-79
2022/06/17 03:54:22;;;;;;;;;;;;;;;;;;5082308;28;19923;-79
2022/06/17 03:56:48;;;;;;;;;;;;;;;;;;5086397;28;19923;-79
2022/06/17 03:59:14;;;;;;;;;;;;;;;;;;5080706;28;19919;-79
2022/06/17 04:01:40;;;;;;;;;;;;;;;;;;5087061;28;20389;-78
2022/06/17 04:04:06;;;;;;;;;;;;;;;;;;5079791;28;19931;-80
2022/06/17 04:06:32;;;;;;;;;;;;;;;;;;5080894;28;20065;-77
2022/06/17 04:08:58;;;;;;;;;;;;;;;;;;5067387;28;19920;-80
2022/06/17 04:11:24;;;;;;;;;;;;;;;;;;5060140;28;19943;-79
2022/06/17 04:13:50;;;;;;;;;;;;;;;;;;5079022;28;19920;-79
2022/06/17 04:16:16;;;;;;;;;;;;;;;;;;5065794;28;19930;-79
2022/06/17 04:18:42;;;;;;;;;;;;;;;;;;5085155;28;20002;-79
2022/06/17 04:21:08;;;;;;;;;;;;;;;;;;5090233;28;19924;-78
2022/06/17 04:23:34;;;;;;;;;;;;;;;;;;5080617;28;19924;-80
2022/06/17 04:26:00;;;;;;;;;;;;;;;;;;5076456;28;19920;-78
2022/06/17 04:28:26;;;;;;;;;;;;;;;;;;5095078;28;19924;-77
2022/06/17 04:30:51;;;;;;;;;;;;;;;;;;5077871;28;20315;-80
2022/06/17 04:33:18;;;;;;;;;;;;;;;;;;5077914;27;20358;-77
2022/06/17 04:35:43;;;;;;;;;;;;;;;;;;5080700;28;20367;-77
2022/06/17 04:38:09;;;;;;;;;;;;;;;;;;5097955;28;19927;-78
2022/06/17 04:40:35;;;;;;;;;;;;;;;;;;5068692;28;19920;-78
2022/06/17 04:43:01;;;;;;;;;;;;;;;;;;5075234;28;19983;-76
2022/06/17 04:45:27;;;;;;;;;;;;;;;;;;5076018;28;20350;-75
2022/06/17 04:47:53;;;;;;;;;;;;;;;;;;5083706;28;19928;-77
2022/06/17 04:50:19;;;;;;;;;;;;;;;;;;5095306;28;19928;-75
2022/06/17 04:52:45;;;;;;;;;;;;;;;;;;5078239;28;19951;-76
2022/06/17 04:55:11;;;;;;;;;;;;;;;;;;5075892;28;19920;-77
2022/06/17 04:57:38;;;;;;;;;;;;;;;;;;5085429;28;20293;-78
2022/06/17 05:00:04;;;;;;;;;;;;;;;;;;5058917;28;19920;-78
2022/06/17 05:02:30;;;;;;;;;;;;;;;;;;5078853;28;19965;-76
2022/06/17 05:04:57;;;;;;;;;;;;;;;;;;5078406;28;20379;-78
2022/06/17 05:07:23;;;;;;;;;;;;;;;;;;5075980;28;19931;-77
2022/06/17 05:09:49;;;;;;;;;;;;;;;;;;5083862;28;19919;-77
2022/06/17 05:12:15;;;;;;;;;;;;;;;;;;5094862;28;19932;-77
2022/06/17 05:14:41;;;;;;;;;;;;;;;;;;5081571;28;19943;-77
2022/06/17 05:17:07;;;;;;;;;;;;;;;;;;5087060;28;20002;-77
2022/06/17 05:19:33;;;;;;;;;;;;;;;;;;5081113;28;19931;-76
2022/06/17 05:21:59;;;;;;;;;;;;;;;;;;5096425;28;19920;-77
2022/06/17 05:24:25;;;;;;;;;;;;;;;;;;5058730;28;19928;-76
2022/06/17 05:26:51;;;;;;;;;;;;;;;;;;5097824;28;19926;-76
2022/06/17 05:29:17;;;;;;;;;;;;;;;;;;5069301;28;19927;-76
2022/06/17 05:31:49;;;;;;;;;;;;;;;;;;5081546;28;20007;-77
2022/06/17 05:34:15;;;;;;;;;;;;;;;;;;5082723;28;19920;-77
2022/06/17 05:36:41;;;;;;;;;;;;;;;;;;5094957;28;20450;-77
2022/06/17 05:39:07;;;;;;;;;;;;;;;;;;5078109;28;19968;-77
2022/06/17 05:41:33;;;;;;;;;;;;;;;;;;5081240;28;20010;-77
2022/06/17 05:43:59;;;;;;;;;;;;;;;;;;5095113;28;20315;-76
2022/06/17 05:46:25;;;;;;;;;;;;;;;;;;5097651;28;19920;-77
2022/06/17 05:48:51;;;;;;;;;;;;;;;;;;5077862;28;20702;-77
2022/06/17 05:51:17;;;;;;;;;;;;;;;;;;5077921;28;19985;-76
2022/06/17 05:53:43;;;;;;;;;;;;;;;;;;5075398;28;19920;-77
2022/06/17 05:56:09;;;;;;;;;;;;;;;;;;5079074;28;19931;-78
2022/06/17 05:58:35;;;;;;;;;;;;;;;;;;5099696;28;20064;-77
2022/06/17 06:01:00;;;;;;;;;;;;;;;;;;5075899;28;19931;-77
2022/06/17 06:03:26;;;;;;;;;;;;;;;;;;5058210;28;19930;-77
2022/06/17 06:05:52;;;;;;;;;;;;;;;;;;5076695;28;20097;-77
2022/06/17 06:08:18;;;;;;;;;;;;;;;;;;5100735;28;19920;-79
2022/06/17 06:10:44;;;;;;;;;;;;;;;;;;5079340;28;19931;-76
2022/06/17 06:13:10;;;;;;;;;;;;;;;;;;5058164;28;19926;-78
2022/06/17 06:15:38;;;;;;;;;;;;;;;;;;5074510;28;20025;-77
2022/06/17 06:18:04;;;;;;;;;;;;;;;;;;5091325;28;20076;-77
2022/06/17 06:20:30;;;;;;;;;;;;;;;;;;5079501;28;20024;-78
2022/06/17 06:22:56;;;;;;;;;;;;;;;;;;5074580;28;20047;-76
2022/06/17 06:25:22;;;;;;;;;;;;;;;;;;5075601;28;19927;-76
2022/06/17 06:27:48;;;;;;;;;;;;;;;;;;5080849;28;19920;-77
2022/06/17 06:30:14;;;;;;;;;;;;;;;;;;5065021;28;19935;-77
2022/06/17 06:32:40;;;;;;;;;;;;;;;;;;5080748;28;19930;-77
2022/06/17 06:35:06;;;;;;;;;;;;;;;;;;5109164;28;19994;-80
2022/06/17 06:37:32;;;;;;;;;;;;;;;;;;5078401;28;19920;-78
2022/06/17 06:39:58;;;;;;;;;;;;;;;;;;5103559;28;19959;-77
2022/06/17 06:42:24;;;;;;;;;;;;;;;;;;5070377;28;20408;-77
2022/06/17 06:44:50;;;;;;;;;;;;;;;;;;5084120;28;20426;-78
2022/06/17 06:47:16;;;;;;;;;;;;;;;;;;5099536;28;19930;-77
2022/06/17 06:49:42;;;;;;;;;;;;;;;;;;5079092;28;20267;-77
2022/06/17 06:52:08;;;;;;;;;;;;;;;;;;5078200;28;20420;-78
2022/06/17 06:54:34;;;;;;;;;;;;;;;;;;5084752;28;19949;-78
2022/06/17 06:57:00;;;;;;;;;;;;;;;;;;5092844;28;19920;-77
2022/06/17 06:59:26;;;;;;;;;;;;;;;;;;5077334;28;19977;-78
2022/06/17 07:01:52;;;;;;;;;;;;;;;;;;5060684;28;19920;-77
2022/06/17 07:04:18;;;;;;;;;;;;;;;;;;5078016;28;19928;-80
2022/06/17 07:06:44;;;;;;;;;;;;;;;;;;5084169;28;19975;-77
2022/06/17 07:09:10;;;;;;;;;;;;;;;;;;5078082;28;20252;-78
2022/06/17 07:11:36;;;;;;;;;;;;;;;;;;5068427;28;19927;-78
2022/06/17 07:14:02;;;;;;;;;;;;;;;;;;5077653;28;19927;-78
2022/06/17 07:16:28;;;;;;;;;;;;;;;;;;5095368;28;20011;-77
2022/06/17 07:18:54;;;;;;;;;;;;;;;;;;5085077;28;19966;-77
2022/06/17 07:21:20;;;;;;;;;;;;;;;;;;5107669;28;19919;-77
2022/06/17 07:23:46;;;;;;;;;;;;;;;;;;5085607;28;20022;-78
2022/06/17 07:26:12;;;;;;;;;;;;;;;;;;5089177;28;19973;-78
2022/06/17 07:28:38;;;;;;;;;;;;;;;;;;5082584;28;19920;-77
2022/06/17 07:31:04;;;;;;;;;;;;;;;;;;5079866;28;20267;-78
2022/06/17 07:33:30;;;;;;;;;;;;;;;;;;5081541;28;20301;-77
2022/06/17 07:35:57;;;;;;;;;;;;;;;;;;5071938;28;19959;-77
2022/06/17 07:41:08;;;;;;;;;;;;;;;;;;5087363;28;19923;-77
2022/06/17 07:43:34;;;;;;;;;;;;;;;;;;5082188;28;19966;-77
2022/06/17 07:46:00;;;;;;;;;;;;;;;;;;5094549;28;19920;-79
2022/06/17 07:48:27;;;;;;;;;;;;;;;;;;5083662;28;19920;-81
2022/06/17 07:50:53;;;;;;;;;;;;;;;;;;5084673;28;20322;-81
2022/06/17 07:53:19;;;;;;;;;;;;;;;;;;5073547;28;19971;-78
2022/06/17 07:55:45;;;;;;;;;;;;;;;;;;5087774;28;19920;-78
2022/06/17 07:58:11;;;;;;;;;;;;;;;;;;5089356;28;19955;-78
2022/06/17 08:00:37;;;;;;;;;;;;;;;;;;5077612;28;19924;-79
2022/06/17 08:03:03;;;;;;;;;;;;;;;;;;5073514;28;19976;-79
2022/06/17 08:05:30;;;;;;;;;;;;;;;;;;5077898;28;19930;-80
2022/06/17 08:07:56;;;;;;;;;;;;;;;;;;5080653;28;19924;-78
2022/06/17 08:10:22;;;;;;;;;;;;;;;;;;5082138;28;19964;-81
2022/06/17 08:12:47;;;;;;;;;;;;;;;;;;5089652;28;20266;-79
2022/06/17 08:15:13;;;;;;;;;;;;;;;;;;5076906;28;20296;-78
2022/06/17 08:17:39;;;;;;;;;;;;;;;;;;5083112;28;19932;-80
2022/06/17 08:20:09;;;;;;;;;;;;;;;;;;5079695;28;20286;-79
2022/06/17 08:22:35;;;;;;;;;;;;;;;;;;5083560;28;20010;-79
2022/06/17 08:25:01;;;;;;;;;;;;;;;;;;5085774;28;19927;-78
2022/06/17 08:27:27;;;;;;;;;;;;;;;;;;5076131;28;19936;-79
2022/06/17 08:29:53;;;;;;;;;;;;;;;;;;5086411;28;19935;-78
2022/06/17 08:35:04;;;;;;;;;;;;;;;;;;5076010;28;19931;-77
2022/06/17 08:37:30;;;;;;;;;;;;;;;;;;5075118;28;19924;-76
2022/06/17 08:39:56;;;;;;;;;;;;;;;;;;5076035;28;19973;-78
2022/06/17 08:42:25;;;;;;;;;;;;;;;;;;5092637;28;19924;-77
2022/06/17 08:44:51;;;;;;;;;;;;;;;;;;5075970;28;19925;-77
2022/06/17 08:47:17;;;;;;;;;;;;;;;;;;5075956;28;19969;-79
2022/06/17 08:49:43;;;;;;;;;;;;;;;;;;5075420;28;19928;-80
2022/06/17 08:52:09;;;;;;;;;;;;;;;;;;5075656;28;19946;-76
2022/06/17 08:54:35;;;;;;;;;;;;;;;;;;5082441;28;19924;-76
2022/06/17 08:57:01;;;;;;;;;;;;;;;;;;5087715;28;20010;-76
2022/06/17 08:59:27;;;;;;;;;;;;;;;;;;5075336;28;20306;-75
2022/06/17 09:01:53;;;;;;;;;;;;;;;;;;5076424;28;20369;-75
2022/06/17 09:04:19;;;;;;;;;;;;;;;;;;5095106;28;19998;-76
2022/06/17 09:06:44;;;;;;;;;;;;;;;;;;5077345;28;19924;-76
2022/06/17 09:09:10;;;;;;;;;;;;;;;;;;5097080;28;19924;-76
2022/06/17 09:11:36;;;;;;;;;;;;;;;;;;5097797;28;20246;-76
2022/06/17 09:14:03;;;;;;;;;;;;;;;;;;5078011;28;19931;-76
2022/06/17 09:16:28;;;;;;;;;;;;;;;;;;5074862;28;19928;-76
2022/06/17 09:18:55;;;;;;;;;;;;;;;;;;5080055;28;19930;-77
2022/06/17 09:21:21;;;;;;;;;;;;;;;;;;5075197;28;20268;-77
2022/06/17 09:23:47;;;;;;;;;;;;;;;;;;5074839;28;19990;-76
2022/06/17 09:26:13;;;;;;;;;;;;;;;;;;5095627;28;20383;-75
2022/06/17 09:28:39;;;;;;;;;;;;;;;;;;5076617;28;20431;-74
2022/06/17 09:31:05;;;;;;;;;;;;;;;;;;5104933;28;19974;-76
2022/06/17 09:33:31;;;;;;;;;;;;;;;;;;5103047;28;19920;-78
2022/06/17 09:35:57;;;;;;;;;;;;;;;;;;5087630;28;19931;-75
2022/06/17 09:38:23;;;;;;;;;;;;;;;;;;5078429;28;19936;-80
2022/06/17 09:40:49;;;;;;;;;;;;;;;;;;5093144;28;19926;-75
2022/06/17 09:43:15;;;;;;;;;;;;;;;;;;5059672;28;20043;-76
2022/06/17 09:45:41;;;;;;;;;;;;;;;;;;5074793;28;19924;-75
2022/06/17 09:48:07;;;;;;;;;;;;;;;;;;5094555;28;19924;-76
2022/06/17 09:50:33;;;;;;;;;;;;;;;;;;5096634;28;19924;-76
2022/06/17 09:52:59;;;;;;;;;;;;;;;;;;5082666;28;20401;-75
2022/06/17 09:55:24;;;;;;;;;;;;;;;;;;5102315;28;19935;-76
2022/06/17 09:57:50;;;;;;;;;;;;;;;;;;5075135;28;19931;-75
2022/06/17 10:00:16;;;;;;;;;;;;;;;;;;5074748;28;19928;-75
2022/06/17 10:02:42;;;;;;;;;;;;;;;;;;5064617;28;19923;-75
2022/06/17 10:05:08;;;;;;;;;;;;;;;;;;5081043;28;19986;-76
2022/06/17 10:07:34;;;;;;;;;;;;;;;;;;5091775;28;19924;-75
2022/06/17 10:10:00;;;;;;;;;;;;;;;;;;5083556;28;19978;-74
2022/06/17 10:12:26;;;;;;;;;;;;;;;;;;5075521;28;19928;-76
2022/06/17 10:14:52;;;;;;;;;;;;;;;;;;5092512;28;19924;-74
2022/06/17 10:20:03;;;;;;;;;;;;;;;;;;5092491;28;19928;-75
2022/06/17 10:22:29;;;;;;;;;;;;;;;;;;5100031;28;20394;-75
2022/06/17 10:24:55;;;;;;;;;;;;;;;;;;5073416;28;19959;-76
2022/06/17 10:27:21;;;;;;;;;;;;;;;;;;5073054;28;20382;-76
2022/06/17 10:29:47;;;;;;;;;;;;;;;;;;5080574;28;20025;-76
2022/06/17 10:32:13;;;;;;;;;;;;;;;;;;5082892;28;19923;-79
2022/06/17 10:34:39;;;;;;;;;;;;;;;;;;5075751;28;19924;-78
2022/06/17 10:37:05;;;;;;;;;;;;;;;;;;5078251;28;19957;-81
2022/06/17 10:39:30;;;;;;;;;;;;;;;;;;5083249;28;19924;-83
2022/06/17 10:41:56;;;;;;;;;;;;;;;;;;5068456;28;19935;-79
2022/06/17 10:44:22;;;;;;;;;;;;;;;;;;5073821;28;19924;-81
2022/06/17 10:46:48;;;;;;;;;;;;;;;;;;5057370;28;19924;-79
2022/06/17 10:49:14;;;;;;;;;;;;;;;;;;5077399;28;19973;-81
2022/06/17 10:51:40;;;;;;;;;;;;;;;;;;5080067;28;20342;-79
2022/06/17 10:54:06;;;;;;;;;;;;;;;;;;5057007;28;19932;-81
2022/06/17 10:56:32;;;;;;;;;;;;;;;;;;5056805;28;19925;-81
2022/06/17 10:58:58;;;;;;;;;;;;;;;;;;5057003;28;19963;-83
2022/06/17 11:01:25;;;;;;;;;;;;;;;;;;5057237;28;19939;-81
2022/06/17 11:03:52;;;;;;;;;;;;;;;;;;5057782;28;20023;-78
2022/06/17 11:06:18;;;;;;;;;;;;;;;;;;5073554;28;19924;-78
2022/06/17 11:08:44;;;;;;;;;;;;;;;;;;5091098;28;19935;-77
2022/06/17 11:13:54;;;;;;;;;;;;;;;;;;5073288;28;19995;-75
2022/06/17 11:16:20;;;;;;;;;;;;;;;;;;5076910;28;20263;-76
2022/06/17 11:18:46;;;;;;;;;;;;;;;;;;5100545;28;20010;-75
2022/06/17 11:21:12;;;;;;;;;;;;;;;;;;5077475;28;19928;-75
2022/06/17 11:23:39;;;;;;;;;;;;;;;;;;5086724;28;20393;-76
2022/06/17 11:26:05;;;;;;;;;;;;;;;;;;5107011;28;19923;-75
2022/06/17 11:28:31;;;;;;;;;;;;;;;;;;5094422;28;19989;-75
2022/06/17 11:30:57;;;;;;;;;;;;;;;;;;5077473;28;19932;-75
2022/06/17 11:33:23;;;;;;;;;;;;;;;;;;5106504;28;20303;-75
2022/06/17 11:35:49;;;;;;;;;;;;;;;;;;5088060;28;19924;-75
2022/06/17 11:38:15;;;;;;;;;;;;;;;;;;5102563;28;19924;-75
2022/06/17 11:40:41;;;;;;;;;;;;;;;;;;5094997;28;19931;-75
2022/06/17 11:43:09;;;;;;;;;;;;;;;;;;5106612;28;20400;-76
2022/06/17 11:45:35;;;;;;;;;;;;;;;;;;5076839;28;19924;-75
2022/06/17 11:48:01;;;;;;;;;;;;;;;;;;5097506;28;19924;-75
2022/06/17 11:50:28;;;;;;;;;;;;;;;;;;5097334;28;20029;-75
2022/06/17 11:52:54;;;;;;;;;;;;;;;;;;5099221;28;19928;-74
2022/06/17 11:55:20;;;;;;;;;;;;;;;;;;5079763;28;20502;-75
2022/06/17 11:57:46;;;;;;;;;;;;;;;;;;5094654;28;19975;-75
2022/06/17 12:00:12;;;;;;;;;;;;;;;;;;5077077;28;19931;-75
2022/06/17 12:02:38;;;;;;;;;;;;;;;;;;5094940;28;19928;-75
2022/06/17 12:05:03;;;;;;;;;;;;;;;;;;5101015;28;19928;-75
2022/06/17 12:07:30;;;;;;;;;;;;;;;;;;5076691;28;20010;-78
2022/06/17 12:09:56;;;;;;;;;;;;;;;;;;5090711;28;19931;-75
2022/06/17 12:12:22;;;;;;;;;;;;;;;;;;5095050;28;19924;-75
2022/06/17 12:14:48;;;;;;;;;;;;;;;;;;5077867;28;19924;-75
2022/06/17 12:17:13;;;;;;;;;;;;;;;;;;5094582;28;19931;-75
2022/06/17 12:19:39;;;;;;;;;;;;;;;;;;5072186;28;19924;-75
2022/06/17 12:22:05;;;;;;;;;;;;;;;;;;5094312;28;19928;-75
2022/06/17 12:24:31;;;;;;;;;;;;;;;;;;5076902;28;19931;-75
2022/06/17 12:26:57;;;;;;;;;;;;;;;;;;5076570;28;19924;-75
2022/06/17 12:29:23;;;;;;;;;;;;;;;;;;5092265;28;20332;-75
2022/06/17 12:31:49;;;;;;;;;;;;;;;;;;5098184;28;20363;-74
2022/06/17 12:34:15;;;;;;;;;;;;;;;;;;5081012;28;19936;-75
2022/06/17 12:36:41;;;;;;;;;;;;;;;;;;5098058;28;19927;-75
2022/06/17 12:39:07;;;;;;;;;;;;;;;;;;5105205;28;19968;-75
2022/06/17 12:41:33;;;;;;;;;;;;;;;;;;5094289;28;19932;-75
2022/06/17 12:43:59;;;;;;;;;;;;;;;;;;5096970;28;19963;-75
2022/06/17 12:46:25;;;;;;;;;;;;;;;;;;5086790;28;20287;-75
2022/06/17 12:48:51;;;;;;;;;;;;;;;;;;5076465;28;20275;-74
2022/06/17 12:54:01;;;;;;;;;;;;;;;;;;5081102;28;20413;-75
2022/06/17 12:56:27;;;;;;;;;;;;;;;;;;5075989;28;19960;-76
2022/06/17 12:58:53;;;;;;;;;;;;;;;;;;5075365;28;19932;-75
2022/06/17 13:01:19;;;;;;;;;;;;;;;;;;5076084;28;19924;-75
2022/06/17 13:03:45;;;;;;;;;;;;;;;;;;5092579;28;20507;-75
2022/06/17 13:06:11;;;;;;;;;;;;;;;;;;5094075;28;20372;-75
2022/06/17 13:08:37;;;;;;;;;;;;;;;;;;5081665;28;19923;-76
2022/06/17 13:11:03;;;;;;;;;;;;;;;;;;5087883;28;19924;-76
2022/06/17 13:13:29;;;;;;;;;;;;;;;;;;5084842;28;19923;-75
2022/06/17 13:15:55;;;;;;;;;;;;;;;;;;5080833;28;19931;-75
2022/06/17 13:18:21;;;;;;;;;;;;;;;;;;5093678;28;20014;-75
2022/06/17 13:20:47;;;;;;;;;;;;;;;;;;5076667;28;19932;-74
2022/06/17 13:23:13;;;;;;;;;;;;;;;;;;5099977;28;19951;-76
2022/06/17 13:25:39;;;;;;;;;;;;;;;;;;5095732;28;19972;-83
2022/06/17 13:28:05;;;;;;;;;;;;;;;;;;5089126;28;19986;-78
2022/06/17 13:30:32;;;;;;;;;;;;;;;;;;5078270;28;20391;-80
2022/06/17 13:32:58;;;;;;;;;;;;;;;;;;5086457;28;19950;-75
2022/06/17 13:35:26;;;;;;;;;;;;;;;;;;5062070;28;20328;-77
2022/06/17 13:37:52;;;;;;;;;;;;;;;;;;5083921;28;20275;-77
2022/06/17 13:40:20;;;;;;;;;;;;;;;;;;5085539;28;19937;-77
2022/06/17 13:42:46;;;;;;;;;;;;;;;;;;5073682;28;19931;-82
2022/06/17 13:45:12;;;;;;;;;;;;;;;;;;5076076;28;19932;-77
2022/06/17 13:47:38;;;;;;;;;;;;;;;;;;5058145;28;19932;-77
2022/06/17 13:50:04;;;;;;;;;;;;;;;;;;5089305;28;20256;-77
2022/06/17 13:52:30;;;;;;;;;;;;;;;;;;5081792;28;19928;-77
2022/06/17 13:54:56;;;;;;;;;;;;;;;;;;5095658;28;19971;-78
2022/06/17 13:57:22;;;;;;;;;;;;;;;;;;5094700;28;20303;-78
2022/06/17 13:59:49;;;;;;;;;;;;;;;;;;5073973;28;20267;-77
2022/06/17 14:02:17;;;;;;;;;;;;;;;;;;5080419;28;20363;-77
2022/06/17 14:04:43;;;;;;;;;;;;;;;;;;5073868;28;19931;-81
2022/06/17 14:07:09;;;;;;;;;;;;;;;;;;5074763;28;19924;-77
2022/06/17 14:09:35;;;;;;;;;;;;;;;;;;5074631;28;19924;-77
2022/06/17 14:12:01;;;;;;;;;;;;;;;;;;5076238;28;19924;-76
2022/06/17 14:14:31;;;;;;;;;;;;;;;;;;5084007;28;19935;-77
2022/06/17 14:16:57;;;;;;;;;;;;;;;;;;5057359;28;19935;-76
2022/06/17 14:19:23;;;;;;;;;;;;;;;;;;5077806;28;19928;-77
2022/06/17 14:21:49;;;;;;;;;;;;;;;;;;5101324;28;19947;-78
2022/06/17 14:24:15;;;;;;;;;;;;;;;;;;5077725;28;19955;-79
2022/06/17 14:26:41;;;;;;;;;;;;;;;;;;5105886;28;19931;-78
2022/06/17 14:29:07;;;;;;;;;;;;;;;;;;5092328;28;19927;-79
2022/06/17 14:31:33;;;;;;;;;;;;;;;;;;5074982;28;19951;-77
2022/06/17 14:33:59;;;;;;;;;;;;;;;;;;5085590;28;19954;-80
2022/06/17 14:36:25;;;;;;;;;;;;;;;;;;5073586;28;19986;-79
2022/06/17 14:38:51;;;;;;;;;;;;;;;;;;5091945;28;20275;-78
2022/06/17 14:44:01;;;;;;;;;;;;;;;;;;5075283;28;19924;-78
2022/06/17 14:46:27;;;;;;;;;;;;;;;;;;5092915;28;20011;-77
2022/06/17 14:48:53;;;;;;;;;;;;;;;;;;5092027;28;19928;-77
2022/06/17 14:51:31;;;;;;;;;;;;;;;;;;5100364;28;19935;-78
2022/06/17 14:53:57;;;;;;;;;;;;;;;;;;5099292;28;19982;-78
2022/06/17 14:56:23;;;;;;;;;;;;;;;;;;5078535;28;19932;-77
2022/06/17 14:58:49;;;;;;;;;;;;;;;;;;5095724;28;19924;-80
2022/06/17 15:01:15;;;;;;;;;;;;;;;;;;5078463;28;19924;-78
2022/06/17 15:03:41;;;;;;;;;;;;;;;;;;5078489;28;20350;-77
2022/06/17 15:06:07;;;;;;;;;;;;;;;;;;5080236;28;19959;-78
2022/06/17 15:08:33;;;;;;;;;;;;;;;;;;5078339;28;20382;-78
2022/06/17 15:10:59;;;;;;;;;;;;;;;;;;5080973;28;19924;-79
2022/06/17 15:16:10;;;;;;;;;;;;;;;;;;5086472;28;19927;-76
2022/06/17 15:18:36;;;;;;;;;;;;;;;;;;5080864;28;20363;-77
2022/06/17 15:21:02;;;;;;;;;;;;;;;;;;5096754;28;20291;-76
2022/06/17 15:23:28;;;;;;;;;;;;;;;;;;5078011;28;20272;-78
2022/06/17 15:25:54;;;;;;;;;;;;;;;;;;5079341;28;20252;-77
2022/06/17 15:28:20;;;;;;;;;;;;;;;;;;5081450;28;20372;-75
2022/06/17 15:30:47;;;;;;;;;;;;;;;;;;5077927;28;19950;-80
2022/06/17 15:33:13;;;;;;;;;;;;;;;;;;5078538;28;20072;-76
2022/06/17 15:35:39;;;;;;;;;;;;;;;;;;5080028;28;20376;-76
2022/06/17 15:38:05;;;;;;;;;;;;;;;;;;5095218;28;20393;-75
2022/06/17 15:40:31;;;;;;;;;;;;;;;;;;5064257;28;19923;-76
2022/06/17 15:42:57;;;;;;;;;;;;;;;;;;5084587;28;20072;-75
2022/06/17 15:45:23;;;;;;;;;;;;;;;;;;5084008;28;20015;-74
2022/06/17 15:47:49;;;;;;;;;;;;;;;;;;5103176;28;19924;-74
2022/06/17 15:50:15;;;;;;;;;;;;;;;;;;5114836;28;19930;-76
2022/06/17 15:52:41;;;;;;;;;;;;;;;;;;5082233;28;20009;-75
2022/06/17 15:55:07;;;;;;;;;;;;;;;;;;5076952;28;19993;-75
2022/06/17 15:57:33;;;;;;;;;;;;;;;;;;5079523;28;20410;-75
2022/06/17 15:59:59;;;;;;;;;;;;;;;;;;5076507;28;19931;-75
2022/06/17 16:02:25;;;;;;;;;;;;;;;;;;5077338;28;20267;-74
2022/06/17 16:04:51;;;;;;;;;;;;;;;;;;5083067;28;19981;-75
2022/06/17 16:07:18;;;;;;;;;;;;;;;;;;5094682;28;19950;-75
2022/06/17 16:09:44;;;;;;;;;;;;;;;;;;5083524;28;19981;-75
2022/06/17 16:12:10;;;;;;;;;;;;;;;;;;5076463;28;19924;-72
2022/06/17 16:14:36;;;;;;;;;;;;;;;;;;5097107;28;20347;-76
2022/06/17 16:17:02;;;;;;;;;;;;;;;;;;5081360;28;20325;-74
2022/06/17 16:19:29;;;;;;;;;;;;;;;;;;5093550;28;19936;-72
2022/06/17 16:21:55;;;;;;;;;;;;;;;;;;5075627;28;19924;-76
2022/06/17 16:24:21;;;;;;;;;;;;;;;;;;5106104;28;20316;-74
2022/06/17 16:26:47;;;;;;;;;;;;;;;;;;5078580;28;20015;-73
2022/06/17 16:29:13;;;;;;;;;;;;;;;;;;5082418;28;20375;-80
2022/06/17 16:31:39;;;;;;;;;;;;;;;;;;5092260;28;19937;-79
2022/06/17 16:34:05;;;;;;;;;;;;;;;;;;5076590;28;19930;-79
2022/06/17 16:36:31;;;;;;;;;;;;;;;;;;5090976;28;20010;-74
2022/06/17 16:38:57;;;;;;;;;;;;;;;;;;5079988;28;19927;-78
2022/06/17 16:44:07;;;;;;;;;;;;;;;;;;5081161;28;19959;-75
2022/06/17 16:46:33;;;;;;;;;;;;;;;;;;5078788;28;19958;-75
2022/06/17 16:48:59;;;;;;;;;;;;;;;;;;5084776;28;19977;-75
2022/06/17 16:51:25;;;;;;;;;;;;;;;;;;5080686;28;19930;-75
2022/06/17 16:53:51;;;;;;;;;;;;;;;;;;5082635;28;19924;-75
2022/06/17 16:56:17;;;;;;;;;;;;;;;;;;5094004;28;20366;-76
2022/06/17 16:58:43;;;;;;;;;;;;;;;;;;5094455;28;19923;-76
2022/06/17 17:01:09;;;;;;;;;;;;;;;;;;5092950;28;19969;-78
2022/06/17 17:03:35;;;;;;;;;;;;;;;;;;5079552;28;19928;-81